Archival Weather

Chicago O'hare International

Chicago O'hare International, Illinois (KORD)

Report from: Saturday, May 14, 2022 5:51 AM CDT
Current time: Monday, May 23, 2022 4:04 AM CDT

Current weather
Weather history
Weather forecast

Temperature19.4°C (66.9°F)
Dew point14.4°C (57.9°F)
Winds 3 kts (1.5 m/s, 3.5 mph) West (270°)
Visibility10 mi. (16.1 km)
Clouds Scattered clouds 9,500 ft. (2,896 m)
Ceiling: Broken clouds 25,000 ft. (7,620 m)
Altimeter29.91 in.Hg (1013 mB)
Relative humidity73 %
Density altitude756 ft. (230 m)
Sea-level pressure101.2 kPa (1012 mB, 29.89 in.Hg)
Remarks Automated weather observing station with precipitation discriminator
Flight conditions Visual Meteorological Conditions
Raw dataKORD 141051Z 27003KT 10SM SCT095 BKN250 19/14 A2991 RMK AO2 SLP123 T01940144
An error has occurred. This application may no longer respond until reloaded. Reload 🗙